Time;durP1;ratioP1;P1;durP2;ratioP2;P2;SDS_P1;SDS_P2;PMS_P1;PMS_P2;Temp;Humidity;BMP_temperature;BMP_pressure;BME280_temperature;BME280_humidity;BME280_pressure;Samples;Min_cycle;Max_cycle;Signal;HPM_P1;HPM_P2
2022/12/17 13:07:43;;;;;;;16.42;7.28;;;;;;;;;;10261758;28;20043;-89
2022/12/17 13:12:49;;;;;;;19.50;7.88;;;;;;;;;;10252121;28;20565;-90
2022/12/17 13:18:06;;;;;;;21.83;9.68;;;;;;;;;;10269668;28;20102;-90
2022/12/17 13:23:29;;;;;;;33.83;14.63;;;;;;;;;;10270541;28;20045;-91
2022/12/17 13:28:34;;;;;;;28.20;11.40;;;;;;;;;;10293526;28;20126;-93
2022/12/17 13:33:45;;;;;;;20.23;9.63;;;;;;;;;;10283013;28;20043;-92
2022/12/17 13:38:55;;;;;;;32.47;13.55;;;;;;;;;;10283168;28;20114;-93
2022/12/17 13:44:02;;;;;;;23.75;11.02;;;;;;;;;;10315150;28;20058;-90
2022/12/17 13:49:17;;;;;;;28.25;12.32;;;;;;;;;;10319991;28;20580;-93
2022/12/17 13:54:23;;;;;;;18.25;7.85;;;;;;;;;;10306390;28;20051;-91
2022/12/17 13:59:28;;;;;;;23.23;9.80;;;;;;;;;;10282759;28;20698;-89
2022/12/17 14:04:33;;;;;;;18.20;7.90;;;;;;;;;;10295172;28;20050;-90
2022/12/17 14:09:43;;;;;;;18.70;8.10;;;;;;;;;;10264470;28;20405;-93
2022/12/17 14:14:49;;;;;;;24.63;11.43;;;;;;;;;;10293087;28;20134;-90
2022/12/17 14:19:58;;;;;;;;;;;;;;;;;;10286320;28;20042;-90
2022/12/17 14:25:03;;;;;;;33.78;15.38;;;;;;;;;;10304602;28;20389;-91
2022/12/17 14:30:22;;;;;;;25.10;10.70;;;;;;;;;;10297363;28;20135;-91
2022/12/17 14:35:31;;;;;;;20.48;9.88;;;;;;;;;;10290345;28;20157;-91
2022/12/17 14:40:36;;;;;;;20.13;8.18;;;;;;;;;;10283367;28;20079;-92
2022/12/17 14:46:19;;;;;;;14.07;6.55;;;;;;;;;;10269530;28;20130;-90
2022/12/17 14:51:20;;;;;;;13.87;6.47;;;;;;;;;;10261717;28;20049;-89
2022/12/17 14:56:24;;;;;;;12.68;6.13;;;;;;;;;;10270029;28;20076;-87
2022/12/17 15:01:28;;;;;;;15.50;7.45;;;;;;;;;;10247914;28;20477;-87
2022/12/17 15:06:35;;;;;;;15.07;6.78;;;;;;;;;;10273171;28;20104;-90
2022/12/17 15:11:40;;;;;;;16.23;7.75;;;;;;;;;;10258130;28;20038;-87
2022/12/17 15:16:45;;;;;;;16.20;7.05;;;;;;;;;;10278854;28;20046;-87
2022/12/17 15:21:50;;;;;;;14.52;7.45;;;;;;;;;;10258882;28;20534;-87
2022/12/17 15:26:54;;;;;;;15.33;6.50;;;;;;;;;;10268478;28;20050;-86
2022/12/17 15:31:57;;;;;;;14.63;6.20;;;;;;;;;;10288897;28;20709;-86
2022/12/17 15:37:08;;;;;;;15.27;6.85;;;;;;;;;;10272021;28;20050;-88
2022/12/17 15:47:32;;;;;;;17.90;8.02;;;;;;;;;;10275973;28;20559;-89
2022/12/17 15:52:40;;;;;;;15.57;7.47;;;;;;;;;;10280798;28;20042;-88
2022/12/17 15:57:44;;;;;;;14.82;7.10;;;;;;;;;;10291682;28;20140;-89
2022/12/17 16:02:48;;;;;;;16.13;7.00;;;;;;;;;;10275319;28;20054;-89
2022/12/17 16:07:57;;;;;;;12.68;6.22;;;;;;;;;;10275271;28;20042;-89
2022/12/17 16:13:01;;;;;;;15.70;8.07;;;;;;;;;;10276719;28;20267;-89
2022/12/17 16:18:06;;;;;;;17.15;8.18;;;;;;;;;;10277891;28;20145;-89
2022/12/17 16:23:13;;;;;;;14.80;7.07;;;;;;;;;;10264976;28;20050;-89
2022/12/17 16:28:17;;;;;;;20.10;8.38;;;;;;;;;;10264809;28;20532;-90
2022/12/17 16:33:21;;;;;;;15.43;7.43;;;;;;;;;;10294018;28;20241;-90
2022/12/17 16:38:26;;;;;;;18.63;8.85;;;;;;;;;;10274069;28;20494;-89
2022/12/17 16:43:34;;;;;;;22.17;9.35;;;;;;;;;;10275624;28;20050;-89
2022/12/17 16:48:39;;;;;;;22.17;10.43;;;;;;;;;;10272368;28;20069;-89
2022/12/17 16:53:45;;;;;;;21.67;9.53;;;;;;;;;;10272629;28;20498;-89
2022/12/17 16:58:49;;;;;;;15.73;8.40;;;;;;;;;;10268338;28;20414;-89
2022/12/17 17:03:53;;;;;;;20.15;10.23;;;;;;;;;;10267586;28;20430;-89
2022/12/17 17:08:58;;;;;;;20.23;10.00;;;;;;;;;;10277801;28;20548;-89
2022/12/17 17:14:03;;;;;;;24.58;10.70;;;;;;;;;;10261998;28;20177;-90
2022/12/17 17:19:10;;;;;;;22.03;11.23;;;;;;;;;;10283743;28;20969;-91
2022/12/17 17:24:18;;;;;;;25.13;11.45;;;;;;;;;;10278297;28;20050;-89
2022/12/17 17:29:24;;;;;;;30.38;11.95;;;;;;;;;;10271975;28;20042;-89
2022/12/17 17:34:27;;;;;;;26.27;10.93;;;;;;;;;;10282930;28;20121;-88
2022/12/17 17:39:33;;;;;;;31.88;12.90;;;;;;;;;;10286291;28;20046;-87
2022/12/17 17:44:38;;;;;;;23.70;9.77;;;;;;;;;;10299117;28;20045;-88
2022/12/17 17:49:42;;;;;;;;;;;;;;;;;;10291841;28;20061;-89
2022/12/17 17:54:48;;;;;;;22.67;11.30;;;;;;;;;;10289232;28;19954;-88
2022/12/17 17:59:52;;;;;;;20.75;10.57;;;;;;;;;;10278883;28;20068;-88
2022/12/17 18:04:58;;;;;;;29.42;13.10;;;;;;;;;;10286319;28;20054;-88
2022/12/17 18:10:04;;;;;;;27.75;12.15;;;;;;;;;;10289496;28;20054;-88
2022/12/17 18:15:10;;;;;;;33.25;14.82;;;;;;;;;;10269824;28;20061;-87
2022/12/17 18:20:18;;;;;;;26.02;11.93;;;;;;;;;;10268707;28;20092;-89
2022/12/17 18:25:24;;;;;;;21.15;10.38;;;;;;;;;;10278438;28;20085;-88
2022/12/17 18:30:28;;;;;;;18.65;8.35;;;;;;;;;;10267320;28;20043;-86
2022/12/17 18:35:32;;;;;;;19.02;8.82;;;;;;;;;;10268261;28;20097;-88
2022/12/17 18:40:39;;;;;;;15.93;7.78;;;;;;;;;;10292539;28;20518;-88
2022/12/17 18:45:42;;;;;;;18.70;7.32;;;;;;;;;;10277172;28;20054;-89
2022/12/17 18:50:47;;;;;;;14.57;7.50;;;;;;;;;;10300258;28;20046;-90
2022/12/17 18:55:53;;;;;;;15.98;7.25;;;;;;;;;;10307461;28;20069;-90
2022/12/17 19:00:56;;;;;;;14.73;7.63;;;;;;;;;;10300830;28;20042;-91
2022/12/17 19:06:08;;;;;;;13.50;7.33;;;;;;;;;;10296066;28;20061;-88
2022/12/17 19:11:14;;;;;;;17.45;7.10;;;;;;;;;;10278177;28;20619;-88
2022/12/17 19:16:23;;;;;;;14.82;7.82;;;;;;;;;;10281820;28;20125;-88
2022/12/17 19:21:30;;;;;;;19.30;8.63;;;;;;;;;;10274979;28;20042;-92
2022/12/17 19:26:36;;;;;;;18.67;8.25;;;;;;;;;;10294120;28;20050;-89
2022/12/17 19:31:40;;;;;;;15.10;8.20;;;;;;;;;;10276264;28;20044;-88
2022/12/17 19:36:44;;;;;;;20.90;10.18;;;;;;;;;;10271365;28;20074;-89
2022/12/17 19:41:50;;;;;;;25.85;10.85;;;;;;;;;;10310757;28;20043;-90
2022/12/17 19:46:57;;;;;;;25.42;10.32;;;;;;;;;;10312100;28;20047;-90
2022/12/17 19:52:01;;;;;;;16.80;7.38;;;;;;;;;;10303757;28;20047;-90
2022/12/17 19:57:13;;;;;;;13.30;7.20;;;;;;;;;;10310580;28;20043;-92
2022/12/17 20:02:20;;;;;;;19.98;9.18;;;;;;;;;;10303607;28;20142;-90
2022/12/17 20:07:24;;;;;;;16.52;8.40;;;;;;;;;;10317987;28;20046;-89
2022/12/17 20:12:29;;;;;;;14.30;6.97;;;;;;;;;;10279553;28;20053;-89
2022/12/17 20:17:33;;;;;;;20.60;8.80;;;;;;;;;;10281324;28;20678;-87
2022/12/17 20:22:38;;;;;;;17.05;7.63;;;;;;;;;;10295552;28;20659;-92
2022/12/17 20:27:43;;;;;;;14.93;6.78;;;;;;;;;;10293358;28;20050;-90
2022/12/17 20:32:47;;;;;;;20.30;10.05;;;;;;;;;;10282400;28;20038;-87
2022/12/17 20:37:52;;;;;;;20.65;9.65;;;;;;;;;;10275821;28;20106;-87
2022/12/17 20:42:57;;;;;;;25.60;10.73;;;;;;;;;;10290097;28;20062;-87
2022/12/17 20:48:01;;;;;;;19.25;9.10;;;;;;;;;;10287004;28;20046;-89
2022/12/17 20:53:05;;;;;;;16.13;8.20;;;;;;;;;;10294516;28;20097;-89
2022/12/17 20:58:16;;;;;;;25.95;10.45;;;;;;;;;;10274833;28;20046;-90
2022/12/17 21:03:20;;;;;;;18.23;8.70;;;;;;;;;;10279764;28;20247;-87
2022/12/17 21:08:24;;;;;;;21.95;10.18;;;;;;;;;;10305171;28;20043;-87
2022/12/17 21:13:29;;;;;;;19.30;9.18;;;;;;;;;;10298474;28;20050;-87
2022/12/17 21:18:33;;;;;;;;;;;;;;;;;;10292250;28;20100;-87
2022/12/17 21:23:38;;;;;;;16.13;8.10;;;;;;;;;;10286797;28;20388;-88
2022/12/17 21:28:45;;;;;;;21.80;10.77;;;;;;;;;;10292526;28;20050;-87
2022/12/17 21:33:49;;;;;;;20.65;9.63;;;;;;;;;;10282731;28;20093;-87
2022/12/17 21:38:55;;;;;;;14.40;7.85;;;;;;;;;;10276926;28;20122;-87
2022/12/17 21:44:05;;;;;;;16.02;7.85;;;;;;;;;;10285952;28;20130;-87
2022/12/17 21:49:09;;;;;;;14.98;7.75;;;;;;;;;;10281107;28;20117;-90
2022/12/17 21:54:13;;;;;;;19.52;9.32;;;;;;;;;;10283146;28;20114;-89
2022/12/17 21:59:21;;;;;;;17.42;8.13;;;;;;;;;;10301219;28;20047;-90
2022/12/17 22:04:25;;;;;;;21.45;9.70;;;;;;;;;;10283864;28;20088;-88
2022/12/17 22:09:29;;;;;;;15.73;8.27;;;;;;;;;;10257435;28;20323;-89
2022/12/17 22:14:37;;;;;;;17.98;8.13;;;;;;;;;;10293926;28;20730;-89
2022/12/17 22:19:40;;;;;;;20.67;10.10;;;;;;;;;;10287416;28;20141;-87
2022/12/17 22:24:44;;;;;;;17.27;8.45;;;;;;;;;;10266805;28;20554;-86
2022/12/17 22:35:10;;;;;;;19.13;8.82;;;;;;;;;;10280737;28;20129;-87
2022/12/17 22:40:14;;;;;;;19.35;7.88;;;;;;;;;;10260037;28;20491;-87
2022/12/17 22:45:33;;;;;;;18.75;8.13;;;;;;;;;;10297009;28;20074;-89
2022/12/17 22:50:39;;;;;;;15.93;8.70;;;;;;;;;;10264042;28;20043;-89
2022/12/17 22:55:43;;;;;;;23.65;8.73;;;;;;;;;;10275388;28;20050;-89
2022/12/17 23:00:48;;;;;;;20.00;9.05;;;;;;;;;;10275262;28;20046;-89
2022/12/17 23:05:51;;;;;;;16.60;8.53;;;;;;;;;;10252311;28;20446;-89
2022/12/17 23:10:55;;;;;;;24.15;10.13;;;;;;;;;;10260008;28;20038;-91
2022/12/17 23:16:00;;;;;;;20.52;9.45;;;;;;;;;;10278310;28;20505;-87
2022/12/17 23:21:08;;;;;;;22.77;10.43;;;;;;;;;;10266552;28;20047;-87
2022/12/17 23:26:14;;;;;;;23.23;10.40;;;;;;;;;;10284198;28;20480;-90
2022/12/17 23:31:22;;;;;;;24.95;11.45;;;;;;;;;;10266999;28;20065;-87
2022/12/17 23:36:28;;;;;;;23.73;11.32;;;;;;;;;;10263918;28;20046;-87
2022/12/17 23:41:34;;;;;;;18.35;8.65;;;;;;;;;;10251191;28;20035;-89
2022/12/17 23:46:40;;;;;;;17.02;7.57;;;;;;;;;;10272427;28;20398;-86
2022/12/17 23:51:45;;;;;;;17.80;8.05;;;;;;;;;;10290229;28;20073;-87
2022/12/17 23:56:49;;;;;;;21.75;8.80;;;;;;;;;;10266657;28;20062;-87
